Mateo Pérez

Olheiro-Chefe - Talleres
4 Abr 2027
Domingo
Processo

Personalidade

Adaptabilidade (11) Ambição (1) Controvérsia (20) Lealdade (13) Pressão (20) Profissionalismo (18) Espírito Esportivo (8) Temperamento (17)

Perfil

Estilo de Treinamento Democrático
Licença Continental Pro
Determinação 10
Gestão de Pessoas 5
Motivação 7
Disciplina 13
Satisfação no Trabalho
69%
Fadiga
0%
Função Olheiro-Chefe
Salário 70.8K p/s
Contrato 14.03.2029

Desempenho

Comportamento Bom
Eficácia do Treinamento
30%
Desenvolvimento do Jogador
40%
Prevenção de Lesões
40%
Implementação Tática
50%

Eventos Recentes

Participou de uma reunião de recrutamento agora
Recomendou um alvo de transferência agora
Avaliou um jogador agora
Avaliou um jogador agora
Avaliou um jogador agora
Avaliou um jogador 7d atrás
Avaliou um jogador 7d atrás
Avaliou um jogador 7d atrás

Monitorando agora

204
Jogador Clube Status Habilidade Confiança Observado Última observação Último voto
Raúl García Osasuna Ativo 147 / 142 40% 2 02.04.2027 -
Mads Roerslev Southampton Ativo 120 / 133 40% 1 02.04.2027 -
Rúben Neves Al-Hilal Ativo 137 / 146 40% 1 02.04.2027 -
Mateo Retegui Al-Qadisiyah Ativo 159 / 157 40% 1 02.04.2027 -
Alan Velasco Boca Juniors Ativo 128 / 125 40% 7 01.04.2027 -
Tomás Molina Argentinos Juniors Ativo 124 / 126 40% 4 01.04.2027 -
Iván Arboleda Sarmiento Ativo 117 / 125 40% 6 30.03.2027 -
Santiago Solari Racing Club Ativo 123 / 122 40% 2 30.03.2027 -
Haji Wright Coventry City Ativo 147 / 122 40% 2 30.03.2027 -
Gentian Selmani Teuta Durrës Ativo 112 / 108 40% 1 30.03.2027 -
Giovanni Simeone Torino Ativo 146 / 129 40% 4 28.03.2027 -
Arthur Gomes Dinamo Moscow Ativo 137 / 112 40% 1 28.03.2027 -
Felipe Augusto Zenit Ativo 140 / 131 40% 8 27.03.2027 -
Taiwo Awoniyi Coventry City Ativo 142 / 148 40% 6 27.03.2027 -
Moussa Diaby Al-Ittihad Ativo 162 / 155 40% 2 27.03.2027 -
Musa Barrow Al-Khaleej Ativo 124 / 138 40% 2 27.03.2027 -
Luciano Gondou CSKA Moscow Ativo 126 / 134 40% 3 25.03.2027 -
Galeno Al-Ahli Ativo 133 / 138 40% 2 25.03.2027 -
Ander Barrenetxea Real Sociedad Ativo 138 / 147 40% 2 25.03.2027 -
Julio Alonso Huesca Ativo 110 / 126 40% 2 23.03.2027 -
Ivan Sergeev Dinamo Moscow Ativo 116 / 132 40% 6 23.03.2027 -
Chiquinho Alverca Ativo 141 / 136 40% 1 23.03.2027 -
Afimico Pululu Al-Hazem Ativo 126 / 124 40% 10 21.03.2027 -
Brenner Vasco da Gama Ativo 132 / 121 40% 2 21.03.2027 -
Óscar Al-Diriyah Ativo 146 / 133 40% 2 20.03.2027 -
Julián Quiñones Al-Qadisiyah Ativo 147 / 150 40% 2 18.03.2027 -
Lucas Villalba Botafogo Ativo 129 / 127 40% 1 18.03.2027 -
Crysencio Summerville Al-Hilal Ativo 145 / 150 40% 1 18.03.2027 -
Bart van Rooij Twente Ativo 145 / 140 40% 1 18.03.2027 -
Morgan Whittaker Middlesbrough Ativo 142 / 124 40% 5 16.03.2027 -
Chuba Akpom Ipswich Town Ativo 117 / 121 40% 1 15.03.2027 -
Youssef En-Nesyri Al-Ittihad Ativo 152 / 145 40% 2 14.03.2027 -
Jordan Larsson Al-Ettifaq Ativo 115 / 120 40% 7 13.03.2027 -
Luis Vázquez Birmingham Ativo 115 / 139 40% 1 13.03.2027 -
Alexey Batrakov Galatasaray Ativo 130 / 156 40% 1 13.03.2027 -
Rafael Santos Borré River Plate Ativo 125 / 138 40% 6 12.03.2027 -
Kingsley Coman Al-Nassr Ativo 159 / 155 40% 2 10.03.2027 -
Gonzalo Plata Dinamo Moscow Ativo 143 / 126 40% 6 10.03.2027 -
Luiz Henrique Zenit Ativo 161 / 145 40% 1 06.03.2027 -
Percy Erasmus SuperSport United Ativo 112 / 134 40% 6 05.03.2027 -
Alexandr Sobolev Zenit Ativo 120 / 128 40% 2 05.03.2027 -
Steven Bergwijn Al-Ittihad Ativo 153 / 151 40% 2 03.03.2027 -
Aitor Ruibal Betis Ativo 126 / 130 40% 1 03.03.2027 -
Ivan Toney Al-Ahli Ativo 139 / 154 40% 4 01.03.2027 -
Ammar Ramadan DAC Dunajska Streda Ativo 112 / 126 40% 5 28.02.2027 -
Moussa Dembélé Al-Ettifaq Ativo 127 / 139 40% 7 24.02.2027 -
Adrian Šemper Al-Fateh Ativo 120 / 127 40% 1 24.02.2027 -
Kaio Jorge Cruzeiro Ativo 132 / 141 40% 3 22.02.2027 -
Iqraam Rayners Mamelodi Sundowns Ativo 117 / 128 40% 5 19.02.2027 -
Mateusz Kochalski Qarabag Ativo 118 / 120 40% 2 19.02.2027 -
Matías Tagliamonte Racing Club Ativo 123 / 118 40% 1 19.02.2027 -
Haissem Hassan Bloemfontein Celtic Ativo 138 / 130 40% 2 18.02.2027 -
Theo Bongonda Al-Faisaly Ativo 146 / 125 40% 1 18.02.2027 -
Stav Toriel Hapoel Tel Aviv Ativo 131 / 133 40% 3 17.02.2027 -
Mirlind Daku Spartak Moscow Ativo 131 / 128 40% 4 14.02.2027 -
Veljko Birmančević Ferencvaros Ativo 151 / 138 40% 4 13.02.2027 -
Andrew Moran Preston Ativo 123 / 127 40% 1 10.02.2027 -
Dor Turgeman New England Revolution Ativo 127 / 135 40% 2 08.02.2027 -
Omri Glazer Maccabi Haifa Ativo 128 / 112 40% 2 02.02.2027 -
Ivor Pandur Hull City Ativo 135 / 122 40% 1 02.02.2027 -
Yarden Shua Beitar Jerusalem Ativo 144 / 126 40% 2 27.01.2027 -
Luis Ingolotti Atlético Tucumán Ativo 116 / 127 40% 3 25.01.2027 -
Yuma Suzuki Kashima Antlers Ativo 137 / 136 40% 3 25.01.2027 -
Nicolás Fernández Belgrano Ativo 135 / 125 40% 2 24.01.2027 -
Miguel Merentiel Boca Juniors Ativo 137 / 133 40% 2 24.01.2027 -
Yusuke Matsuo CSKA Moscow Ativo 124 / 121 40% 3 20.01.2027 -
Sebastián Meza Huracán Ativo 135 / 129 40% 6 19.01.2027 -
Freddie Woodman Liverpool Ativo 118 / 126 40% 1 19.01.2027 -
Hamode Kanaan Hapoel Beer Sheva Ativo 119 / 134 40% 1 19.01.2027 -
Emmanuel Boateng Hapoel Tel Aviv Ativo 124 / 114 40% 1 18.01.2027 -
Facundo Torres Shakhtar Ativo 128 / 127 40% 1 18.01.2027 -
Dan Biton Hapoel Beer Sheva Ativo 120 / 117 40% 1 13.01.2027 -
Abdullah Juma Al Ahli Ativo 145 / 138 40% 2 09.01.2027 -
Eguinaldo Shakhtar Ativo 126 / 144 40% 1 07.01.2027 -
Kirill Glebov CSKA Moscow Ativo 113 / 128 40% 1 05.01.2027 -
Andras Szalai Haladas Ativo 112 / 113 40% 2 03.01.2027 -
Luciano Jachfe Nueva Chicago Ativo 120 / 119 40% 3 02.01.2027 -
José Paradela Cruz Azul Ativo 133 / 140 40% 1 02.01.2027 -
Juan Bezerra Zamalek Ativo 119 / 132 40% 1 02.01.2027 -
Khalid Yaqoob Al Shabab Ativo 140 / 135 40% 3 30.12.2026 -
Teboho Williams SuperSport United Ativo 111 / 115 40% 1 30.12.2026 -
Milad Nekounam Rah Ahan Ativo 133 / 118 40% 2 28.12.2026 -
José Tomino Sarmiento Ativo 95 / 91 58% 1 28.12.2026 Aprovar
Marco Pineda VfB Stuttgart Ativo 129 / 134 40% 1 26.12.2026 -
Sergej Milinković-Savić Al-Hilal Ativo 142 / 162 40% 1 26.12.2026 -
Axel Openda KV Oostende Ativo 151 / 135 40% 1 24.12.2026 -
Kauã Elias Shakhtar Ativo 144 / 136 40% 2 23.12.2026 -
Ronaldo Rostov Ativo 117 / 131 40% 1 22.12.2026 -
Akinkunmi Amoo Ismaily Ativo 128 / 110 40% 1 21.12.2026 -
Oleksii Hutsuliak Polissia Ativo 123 / 131 40% 2 15.12.2026 -
Sebastián Villa Boca Juniors Ativo 127 / 131 40% 1 12.12.2026 -
Felipe Zenobio Tigre Ativo 119 / 119 40% 5 11.12.2026 -
Tomás Marchiori Vélez Ativo 119 / 124 40% 4 11.12.2026 -
Kristian Eriksen Molde Ativo 131 / 128 40% 1 06.12.2026 -
Amir Hossein Hosseinzadeh Tractor Ativo 122 / 123 40% 2 03.12.2026 -
Daniel Karlsbakk Sarpsborg 08 Ativo 127 / 117 40% 1 03.12.2026 -
Fashion Sakala Al-Fayha Ativo 113 / 114 40% 1 02.12.2026 -
Maílson Al-Taawoun Ativo 111 / 122 40% 1 29.11.2026 -
Răzvan Sava Universitatea Craiova Ativo 126 / 116 40% 2 27.11.2026 -
Duncan McGuire Houston Dynamo Ativo 109 / 122 40% 1 25.11.2026 -
Wessam Abou Ali Columbus Crew Ativo 137 / 137 40% 1 25.11.2026 -
Diego Romero Universitario Ativo 114 / 124 40% 4 24.11.2026 -
Nikola Vasilj Spartak Moscow Ativo 133 / 139 40% 2 22.11.2026 -
Lukas Gütlbauer Wolfsberger AC Ativo 110 / 128 40% 1 20.11.2026 -
Renato Solís Lech Ativo 117 / 110 40% 5 19.11.2026 -
Dmytro Riznyk Shakhtar Ativo 156 / 128 40% 3 19.11.2026 -
Kein Sato FC Tokyo Ativo 117 / 121 40% 2 18.11.2026 -
Luis Palma Lech Ativo 119 / 121 40% 1 18.11.2026 -
Matt Freese New York City Ativo 134 / 129 40% 2 15.11.2026 -
Sergey Pinyaev Lokomotiv Moscow Ativo 110 / 115 40% 1 14.11.2026 -
Angus Gunn San Jose Earthquakes Ativo 129 / 113 40% 2 12.11.2026 -
Elías Rafn Ólafsson FC Midtjylland Ativo 115 / 130 40% 1 12.11.2026 -
Patrick Pentz Brondby Ativo 115 / 133 40% 1 11.11.2026 -
Iñaki Peña Panathinaikos Ativo 133 / 128 40% 1 10.11.2026 -
Jindřich Staněk Slavia Prague Ativo 150 / 149 40% 1 10.11.2026 -
Cristopher Fiermarin Defensa y Justicia Ativo 126 / 126 40% 2 08.11.2026 -
Oscar Hedvall Valerenga Ativo 129 / 110 40% 1 08.11.2026 -
Taisei Miyashiro Seattle Sounders Ativo 117 / 115 40% 2 07.11.2026 -
Mads Hedenstad AGF Ativo 115 / 110 40% 1 07.11.2026 -
Chris Brady Chicago Fire Ativo 145 / 129 40% 1 07.11.2026 -
Yorbe Vertessen Red Bull Salzburg Ativo 132 / 126 40% 1 07.11.2026 -
Ruslan Neshcheret Dynamo Kyiv Ativo 119 / 119 40% 1 05.11.2026 -
Daniil Khudyakov Sturm Graz Ativo 107 / 114 40% 1 03.11.2026 -
Emilio Di Fulvio Colegiales Ativo 126 / 105 40% 1 03.11.2026 -
Anthony Racioppi Sion Ativo 127 / 130 40% 2 30.10.2026 -
Mauro Arambarri River Plate Ativo 144 / 154 40% 2 30.10.2026 -
Patrik Wålemark Lech Ativo 119 / 113 40% 1 30.10.2026 -
Camilo Durán Bloemfontein Celtic Ativo 104 / 128 40% 1 27.10.2026 -
Manfred Ugalde Spartak Moscow Ativo 114 / 133 40% 1 25.10.2026 -
Zack Steffen Colorado Rapids Ativo 133 / 125 40% 2 23.10.2026 -
Víctor Cabezas Union Magdalena Ativo 126 / 112 40% 1 23.10.2026 -
Andreas Hansen FC Nordsjaelland Ativo 115 / 113 40% 1 22.10.2026 -
Dániel Gazdag Columbus Crew Ativo 119 / 120 40% 1 22.10.2026 -
Jonathan Bamba Chicago Fire Ativo 129 / 143 40% 1 21.10.2026 -
Roman Celentano FC Cincinnati Ativo 108 / 109 40% 2 20.10.2026 -
Yuki Kakita FC Copenhagen Ativo 116 / 125 40% 1 20.10.2026 -
Leo Ceara Kashima Antlers Ativo 146 / 130 40% 1 20.10.2026 -
Lucas Bruera Carabobo Ativo 108 / 124 40% 1 16.10.2026 -
Lawrence Ati-Zigi St. Gallen Ativo 112 / 117 40% 1 16.10.2026 -
Alex Luna Instituto Ativo 130 / 125 40% 1 15.10.2026 -
Tomáš Chorý Slavia Prague Ativo 140 / 150 40% 3 13.10.2026 -
Pep Biel Charlotte Football Club Ativo 125 / 122 40% 1 13.10.2026 -
Marcelino Moreno Lanús Ativo 132 / 125 40% 1 12.10.2026 -
Carlos Palacios Boca Juniors Ativo 117 / 136 40% 1 12.10.2026 -
Miguel Vargas Universitario Ativo 106 / 108 40% 1 08.10.2026 -
Rubén Blanco Yokohama F. Marinos Ativo 119 / 137 40% 1 08.10.2026 -
Nikita Haikin Bodo/Glimt Ativo 142 / 137 40% 1 07.10.2026 -
Kazuki Fujita Avispa Fukuoka Ativo 122 / 119 40% 1 06.10.2026 -
Adrián Marín Orlando City Ativo 117 / 131 40% 1 06.10.2026 -
Philip Zinckernagel Chicago Fire Ativo 146 / 128 40% 1 06.10.2026 -
Facundo Altamirano San Lorenzo Ativo 114 / 124 40% 2 04.10.2026 -
Victor Aznar Cádiz Ativo 113 / 120 40% 2 03.10.2026 -
Emiliano González Almagro Ativo 116 / 118 40% 1 01.10.2026 -
Ignacio Russo Tigre Ativo 116 / 124 40% 1 30.09.2026 -
Tobias Bech AGF Ativo 138 / 120 40% 1 30.09.2026 -
Domagoj Drožđek Tractor Ativo 142 / 122 40% 1 29.09.2026 -
Mandla Jali SuperSport United Ativo 98 / 105 40% 1 28.09.2026 -
Uğurcan Çakır Galatasaray Ativo 150 / 128 40% 1 26.09.2026 -
Nicolás Sumavil Platense Ativo 107 / 111 40% 2 25.09.2026 -
Nelson Insfrán Charleroi Ativo 135 / 113 40% 1 25.09.2026 -
Marcel Hartel St. Louis CITY SC Ativo 120 / 127 40% 1 24.09.2026 -
Santiago Rojas Nacional Ativo 107 / 121 40% 4 23.09.2026 -
Jorge Hernández Tijuana Ativo 101 / 123 40% 3 23.09.2026 -
Nicolás Campisi Sportivo Luqueno Ativo 112 / 125 40% 2 21.09.2026 -
Marko Ilić KV Kortrijk Ativo 112 / 129 40% 1 21.09.2026 -
Federico Viñas Toluca Ativo 143 / 120 40% 1 21.09.2026 -
Felipe Parra Envigado Ativo 131 / 116 40% 2 19.09.2026 -
Carlos Moreno Pachuca Ativo 148 / 123 40% 3 18.09.2026 -
Mauro Silveira Junior Ativo 107 / 124 40% 1 18.09.2026 -
Luis Malagón Club America Ativo 126 / 128 40% 2 17.09.2026 -
Geovanni Banguera Deportivo Pasto Ativo 115 / 116 40% 1 16.09.2026 -
Jean America de Cali Ativo 116 / 123 40% 2 15.09.2026 -
Manuel Roffo Cerro Porteno Ativo 124 / 128 40% 3 14.09.2026 -
Marcus Ingvartsen San Diego Football Club Ativo 111 / 117 40% 1 14.09.2026 -
Matías Budiño Colón Ativo 112 / 113 40% 1 14.09.2026 -
Sebastian Hernandez Cortulua Ativo 115 / 121 40% 1 11.09.2026 -
Fabrizio Correa Juventud Ativo 109 / 113 40% 2 10.09.2026 -
Santiago Montiel Independiente Ativo 134 / 118 40% 1 10.09.2026 -
Juan Cruz de los Santos Nacional Ativo 118 / 129 40% 1 10.09.2026 -
Rodrigo Morínigo Libertad Ativo 107 / 118 40% 3 06.09.2026 -
Esteban Glellel Shonan Bellmare Ativo 100 / 121 40% 1 06.09.2026 -
Jhonatan Candia Barracas Central Ativo 129 / 116 40% 1 05.09.2026 -
Efraín Álvarez Guadalajara Ativo 117 / 128 40% 1 05.09.2026 -
Drake Callender Minnesota United FC Ativo 106 / 119 40% 3 04.09.2026 -
James Pantemis Portland Timbers Ativo 108 / 105 40% 1 03.09.2026 -
Adrián Alavés Ativo 102 / 122 40% 2 01.09.2026 -
Bongokuhle Hlongwane Minnesota United FC Ativo 136 / 119 40% 1 31.08.2026 -
Carlos Acevedo Santos Laguna Ativo 134 / 138 40% 1 29.08.2026 -
Keisuke Osako Sanfrecce Hiroshima Ativo 148 / 128 40% 1 28.08.2026 -
Alejandro Rodríguez Deportivo Cali Ativo 129 / 126 40% 3 27.08.2026 -
Álex Arce Independiente Rivadavia Ativo 131 / 121 40% 1 26.08.2026 -
Hugo Cuypers Monterrey Ativo 115 / 127 40% 1 23.08.2026 -
Ezequiel Centurión River Plate Ativo 110 / 117 40% 1 20.08.2026 -
Andrés Gudiño Cruz Azul Ativo 109 / 110 40% 1 19.08.2026 -
Angel Zamudio Sport Huancayo Ativo 112 / 121 40% 1 18.08.2026 -
Dayne St. Clair Inter Miami CF Ativo 108 / 128 40% 1 17.08.2026 -
Cesar Corona Veracruz Ativo 129 / 127 40% 1 16.08.2026 -
Santiago Silva Boston River Ativo 108 / 121 40% 1 15.08.2026 -
Sam Surridge Nashville SC Ativo 148 / 130 40% 1 07.08.2026 -
Miguel Ortega Deportes Tolima Ativo 116 / 110 40% 1 04.08.2026 -
Fernando Tapia Club America Ativo 125 / 129 40% 1 02.08.2026 -
Antonio Sivera Alavés Ativo 124 / 149 40% 1 02.08.2026 -
Nicolás Ibáñez Cruz Azul Ativo 117 / 137 40% 1 02.08.2026 -
Diego Rossi Monterrey Ativo 148 / 134 40% 1 02.08.2026 -